createdAt,value
2018-12-15T00:00:36.807Z,96430.12
2018-12-15T00:03:06.708Z,96428.92
2018-12-15T00:05:36.692Z,96427.11
2018-12-15T00:08:06.560Z,96428.64
2018-12-15T00:10:36.658Z,96428.25
2018-12-15T00:13:06.653Z,96425.41
2018-12-15T00:15:36.529Z,96430.09
2018-12-15T00:18:07.476Z,96442.28
2018-12-15T00:20:37.872Z,96444.36
2018-12-15T00:23:08.259Z,96444.13
2018-12-15T00:25:38.122Z,96442.59
2018-12-15T00:28:07.997Z,96435.06
2018-12-15T00:30:37.821Z,96441.14
2018-12-15T00:33:07.715Z,96438.28
2018-12-15T00:39:23.420Z,96444.30
2018-12-15T00:42:18.059Z,96443.82
2018-12-15T00:44:47.999Z,96445.16
2018-12-15T00:47:17.893Z,96444.64
2018-12-15T00:49:47.705Z,96449.90
2018-12-15T00:52:18.048Z,96449.90
2018-12-15T00:54:48.059Z,96443.48
2018-12-15T00:57:17.903Z,96442.48
2018-12-15T00:59:47.991Z,96452.15
2018-12-15T01:02:17.995Z,96453.17
2018-12-15T01:04:48.060Z,96454.45
2018-12-15T01:07:17.893Z,96457.66
2018-12-15T01:09:48.021Z,96465.08
2018-12-15T01:12:18.706Z,96468.34
2018-12-15T01:14:48.767Z,96480.20
2018-12-15T01:17:20.710Z,96469.45
2018-12-15T01:19:50.398Z,96477.64
2018-12-15T01:22:20.428Z,96480.37
2018-12-15T01:24:50.391Z,96483.70
2018-12-15T01:27:20.143Z,96486.23
2018-12-15T01:29:49.910Z,96480.09
2018-12-15T01:32:19.650Z,96490.09
2018-12-15T01:34:49.696Z,96489.61
2018-12-15T01:37:19.832Z,96485.29
2018-12-15T01:39:49.581Z,96487.42
2018-12-15T01:42:19.683Z,96490.43
2018-12-15T01:44:49.468Z,96486.42
2018-12-15T01:47:19.237Z,96494.95
2018-12-15T01:49:49.740Z,96491.38
2018-12-15T01:52:19.498Z,96492.02
2018-12-15T01:54:49.470Z,96488.61
2018-12-15T01:57:19.563Z,96496.31
2018-12-15T01:59:49.319Z,96495.55
2018-12-15T02:02:19.089Z,96502.97
2018-12-15T02:04:48.851Z,96504.58
2018-12-15T02:07:18.645Z,96501.91
2018-12-15T02:09:48.445Z,96508.53
2018-12-15T02:12:18.219Z,96503.19
2018-12-15T02:14:48.033Z,96511.41
2018-12-15T02:17:17.975Z,96512.86
2018-12-15T02:19:48.803Z,96508.80
2018-12-15T02:22:19.007Z,96517.89
2018-12-15T02:24:49.220Z,96526.50
2018-12-15T02:27:19.060Z,96524.87
2018-12-15T02:29:48.898Z,96529.11
2018-12-15T02:32:18.715Z,96537.48
2018-12-15T02:34:48.517Z,96526.00
2018-12-15T02:37:18.283Z,96535.01
2018-12-15T02:39:48.078Z,96529.95
2018-12-15T02:42:18.208Z,96537.44
2018-12-15T02:44:48.280Z,96530.45
2018-12-15T02:47:18.077Z,96533.71
2018-12-15T02:49:47.859Z,96539.37
2018-12-15T02:52:17.736Z,96546.30
2018-12-15T02:54:47.553Z,96540.70
2018-12-15T02:57:17.620Z,96545.73
2018-12-15T02:59:47.671Z,96542.24
2018-12-15T03:02:17.718Z,96547.87
2018-12-15T03:04:47.964Z,96546.89
2018-12-15T03:07:18.575Z,96545.14
2018-12-15T03:09:48.607Z,96545.40
2018-12-15T03:12:18.689Z,96545.73
2018-12-15T03:14:48.803Z,96551.75
2018-12-15T03:21:21.947Z,96548.33
2018-12-15T03:23:51.683Z,96547.33
2018-12-15T03:26:21.517Z,96549.41
2018-12-15T03:28:51.250Z,96552.39
2018-12-15T03:31:21.308Z,96551.28
2018-12-15T03:33:51.439Z,96548.08
2018-12-15T03:36:21.232Z,96543.48
2018-12-15T03:38:51.050Z,96545.84
2018-12-15T03:41:20.821Z,96540.16
2018-12-15T03:43:50.615Z,96542.09
2018-12-15T03:46:20.750Z,96542.09
2018-12-15T03:48:50.555Z,96540.06
2018-12-15T03:51:20.312Z,96541.98
2018-12-15T03:53:50.706Z,96540.17
2018-12-15T03:56:20.806Z,96537.23
2018-12-15T03:58:50.573Z,96537.88
2018-12-15T04:01:20.349Z,96534.45
2018-12-15T04:03:50.125Z,96536.86
2018-12-15T04:06:19.946Z,96536.11
2018-12-15T04:08:50.030Z,96542.25
2018-12-15T04:11:20.022Z,96537.34
2018-12-15T04:13:50.010Z,96540.66
2018-12-15T04:16:19.750Z,96542.84
2018-12-15T04:18:49.515Z,96544.61
2018-12-15T04:21:19.321Z,96547.33
2018-12-15T04:23:49.396Z,96542.20
2018-12-15T04:26:19.236Z,96545.51
2018-12-15T04:28:49.431Z,96541.40
2018-12-15T04:31:19.212Z,96535.63
2018-12-15T04:33:49.228Z,96547.38
2018-12-15T04:36:20.688Z,96547.33
2018-12-15T04:38:50.496Z,96547.87
2018-12-15T04:41:20.268Z,96542.69
2018-12-15T04:43:50.532Z,96548.28
2018-12-15T04:46:20.350Z,96548.82
2018-12-15T04:48:50.418Z,96542.48
2018-12-15T04:51:20.194Z,96553.47
2018-12-15T04:53:50.204Z,96538.78
2018-12-15T04:56:19.972Z,96536.11
2018-12-15T04:58:49.750Z,96542.04
2018-12-15T05:01:19.474Z,96540.70
2018-12-15T05:03:49.235Z,96542.40
2018-12-15T05:06:19.030Z,96532.47
2018-12-15T05:08:48.787Z,96533.48
2018-12-15T05:12:20.735Z,96539.58
2018-12-15T05:14:50.540Z,96535.63
2018-12-15T05:17:20.365Z,96535.42
2018-12-15T05:19:50.155Z,96535.72
2018-12-15T05:22:20.489Z,96537.64
2018-12-15T05:25:25.227Z,96542.94
2018-12-15T05:27:55.030Z,96545.20
2018-12-15T05:30:25.098Z,96544.48
2018-12-15T05:32:55.134Z,96536.48
2018-12-15T05:35:24.932Z,96542.78
2018-12-15T05:41:30.959Z,96548.48
2018-12-15T05:44:00.844Z,96551.44
2018-12-15T05:46:31.033Z,96547.16
2018-12-15T05:49:00.835Z,96551.70
2018-12-15T05:51:30.875Z,96545.25
2018-12-15T05:54:00.843Z,96553.26
2018-12-15T05:56:30.631Z,96552.19
2018-12-15T05:59:00.850Z,96553.36
2018-12-15T06:01:30.694Z,96564.14
2018-12-15T06:04:00.503Z,96563.86
2018-12-15T06:06:30.961Z,96562.70
2018-12-15T06:09:01.076Z,96556.50
2018-12-15T06:11:31.227Z,96562.70
2018-12-15T06:14:00.984Z,96558.75
2018-12-15T06:16:30.851Z,96562.17
2018-12-15T06:19:01.257Z,96562.52
2018-12-15T06:21:31.048Z,96567.02
2018-12-15T06:24:01.098Z,96560.62
2018-12-15T06:26:30.884Z,96558.05
2018-12-15T06:29:00.794Z,96562.90
2018-12-15T06:31:30.564Z,96558.69
2018-12-15T06:34:00.308Z,96559.11
2018-12-15T06:36:30.100Z,96559.38
2018-12-15T06:38:59.882Z,96558.19
2018-12-15T06:41:29.648Z,96559.58
2018-12-15T06:43:59.498Z,96562.78
2018-12-15T06:46:29.764Z,96557.34
2018-12-15T06:48:59.804Z,96555.73
2018-12-15T06:51:29.724Z,96551.03
2018-12-15T06:53:59.478Z,96549.86
2018-12-15T06:56:29.276Z,96547.67
2018-12-15T06:58:59.048Z,96552.48
2018-12-15T07:01:28.815Z,96551.03
2018-12-15T07:03:58.646Z,96555.27
2018-12-15T07:06:28.747Z,96549.92
2018-12-15T07:08:58.595Z,96544.52
2018-12-15T07:11:28.761Z,96550.94
2018-12-15T07:13:58.567Z,96551.69
2018-12-15T07:16:28.954Z,96558.09
2018-12-15T07:18:58.752Z,96555.22
2018-12-15T07:21:28.561Z,96548.10
2018-12-15T07:23:58.361Z,96561.66
2018-12-15T07:26:28.155Z,96550.40
2018-12-15T07:28:58.000Z,96556.17
2018-12-15T07:31:27.803Z,96555.73
2018-12-15T07:33:57.573Z,96562.69
2018-12-15T07:36:27.363Z,96565.26
2018-12-15T07:38:57.145Z,96561.91
2018-12-15T07:41:27.015Z,96565.47
2018-12-15T07:43:56.766Z,96565.21
2018-12-15T07:46:26.516Z,96567.66
2018-12-15T07:48:56.286Z,96565.69
2018-12-15T07:51:26.075Z,96571.20
2018-12-15T07:53:56.135Z,96561.68
2018-12-15T07:56:28.130Z,96566.22
2018-12-15T07:58:57.938Z,96572.00
2018-12-15T08:01:28.068Z,96567.50
2018-12-15T08:03:57.869Z,96568.53
2018-12-15T08:06:28.068Z,96567.08
2018-12-15T08:08:57.987Z,96579.20
2018-12-15T08:11:33.109Z,96576.95
2018-12-15T08:14:07.326Z,96572.36
2018-12-15T08:16:37.294Z,96582.19
2018-12-15T08:19:07.136Z,96568.74
2018-12-15T08:21:37.626Z,96572.91
2018-12-15T08:24:07.424Z,96568.27
2018-12-15T08:26:37.696Z,96569.75
2018-12-15T08:29:07.535Z,96564.09
2018-12-15T08:31:37.468Z,96566.98
2018-12-15T08:34:07.416Z,96565.97
2018-12-15T08:36:37.232Z,96568.59
2018-12-15T08:39:09.041Z,96562.02
2018-12-15T08:41:38.871Z,96569.11
2018-12-15T08:44:08.678Z,96562.61
2018-12-15T08:46:38.524Z,96569.75
2018-12-15T08:49:08.644Z,96567.03
2018-12-15T08:51:39.402Z,96568.70
2018-12-15T08:54:09.246Z,96565.44
2018-12-15T08:56:39.869Z,96575.27
2018-12-15T08:59:09.713Z,96576.48
2018-12-15T09:01:39.537Z,96576.02
2018-12-15T09:07:45.503Z,96583.98
2018-12-15T09:10:15.282Z,96576.28
2018-12-15T09:12:45.095Z,96584.88
2018-12-15T09:15:14.939Z,96586.44
2018-12-15T09:17:44.826Z,96594.97
2018-12-15T09:20:15.046Z,96586.21
2018-12-15T09:22:44.934Z,96584.06
2018-12-15T09:25:15.209Z,96592.69
2018-12-15T09:27:44.987Z,96601.34
2018-12-15T09:30:14.793Z,96601.29
2018-12-15T09:32:44.688Z,96599.47
2018-12-15T09:35:14.582Z,96603.22
2018-12-15T09:37:44.420Z,96605.89
2018-12-15T09:40:14.349Z,96609.66
2018-12-15T09:42:44.729Z,96602.47
2018-12-15T09:45:15.183Z,96601.01
2018-12-15T09:47:45.283Z,96596.20
2018-12-15T09:50:15.547Z,96607.33
2018-12-15T09:52:45.463Z,96592.73
2018-12-15T09:55:15.475Z,96600.10
2018-12-15T09:57:45.391Z,96597.52
2018-12-15T10:00:15.709Z,96598.45
2018-12-15T10:02:45.643Z,96605.45
2018-12-15T10:05:15.903Z,96596.80
2018-12-15T10:08:23.829Z,96603.16
2018-12-15T10:10:53.658Z,96599.58
2018-12-15T10:13:23.555Z,96594.39
2018-12-15T10:15:53.363Z,96604.44
2018-12-15T10:18:23.282Z,96593.76
2018-12-15T10:20:53.541Z,96588.78
2018-12-15T10:23:23.361Z,96584.88
2018-12-15T10:25:53.173Z,96584.03
2018-12-15T10:28:22.953Z,96578.58
2018-12-15T10:31:59.022Z,96570.34
2018-12-15T10:34:28.833Z,96566.77
2018-12-15T10:36:58.660Z,96555.53
2018-12-15T10:39:28.534Z,96564.61
2018-12-15T10:41:58.518Z,96544.52
2018-12-15T10:44:28.436Z,96566.84
2018-12-15T10:46:59.017Z,96546.64
2018-12-15T10:49:30.886Z,96549.74
2018-12-15T10:52:00.751Z,96549.77
2018-12-15T10:54:31.158Z,96548.37
2018-12-15T10:57:00.986Z,96553.16
2018-12-15T10:59:30.758Z,96545.14
2018-12-15T11:02:00.592Z,96544.85
2018-12-15T11:04:30.462Z,96553.30
2018-12-15T11:07:00.433Z,96548.45
2018-12-15T11:09:30.242Z,96541.45
2018-12-15T11:12:00.082Z,96550.88
2018-12-15T11:14:29.946Z,96545.30
2018-12-15T11:16:59.932Z,96544.07
2018-12-15T11:19:37.023Z,96534.29
2018-12-15T11:22:03.048Z,96531.55
2018-12-15T11:24:33.342Z,96530.76
2018-12-15T11:27:04.075Z,96517.05
2018-12-15T11:29:34.007Z,96516.31
2018-12-15T11:35:40.311Z,96510.59
2018-12-15T11:38:10.227Z,96498.67
2018-12-15T11:40:40.109Z,96500.27
2018-12-15T11:43:09.973Z,96504.21
2018-12-15T11:45:39.905Z,96487.81
2018-12-15T11:48:26.651Z,96474.86
2018-12-15T11:50:56.849Z,96479.73
2018-12-15T11:53:26.772Z,96462.89
2018-12-15T11:55:56.738Z,96459.35
2018-12-15T11:58:27.956Z,96465.50
2018-12-15T12:04:34.471Z,96449.79
2018-12-15T12:07:04.762Z,96451.74
2018-12-15T12:09:34.693Z,96445.56
2018-12-15T12:12:04.654Z,96452.66
2018-12-15T12:14:34.511Z,96443.30
2018-12-15T12:17:04.567Z,96447.19
2018-12-15T12:19:34.530Z,96437.55
2018-12-15T12:22:04.403Z,96433.76
2018-12-15T12:24:34.269Z,96439.10
2018-12-15T12:27:04.112Z,96448.24
2018-12-15T12:29:33.957Z,96440.50
2018-12-15T12:32:03.817Z,96435.76
2018-12-15T12:34:33.638Z,96430.86
2018-12-15T12:37:03.519Z,96430.12
2018-12-15T12:39:33.486Z,96433.27
2018-12-15T12:42:03.388Z,96425.98
2018-12-15T12:44:33.523Z,96428.23
2018-12-15T12:47:03.483Z,96436.92
2018-12-15T12:49:33.387Z,96437.69
2018-12-15T12:52:03.307Z,96450.03
2018-12-15T12:54:33.275Z,96442.50
2018-12-15T12:57:03.249Z,96441.47
2018-12-15T12:59:33.184Z,96442.37
2018-12-15T13:02:03.153Z,96444.89
2018-12-15T13:04:32.996Z,96455.41
2018-12-15T13:07:02.846Z,96463.36
2018-12-15T13:09:32.781Z,96448.78
2018-12-15T13:12:02.774Z,96457.47
2018-12-15T13:14:32.575Z,96457.83
2018-12-15T13:17:02.432Z,96454.98
2018-12-15T13:19:32.360Z,96450.31
2018-12-15T13:22:02.266Z,96446.23
2018-12-15T13:24:32.849Z,96454.61
2018-12-15T13:27:02.699Z,96458.81
2018-12-15T13:29:32.535Z,96458.27
2018-12-15T13:32:02.435Z,96454.61
2018-12-15T13:34:32.644Z,96452.19
2018-12-15T13:37:02.574Z,96462.57
2018-12-15T13:39:32.496Z,96460.56
2018-12-15T13:42:02.380Z,96459.89
2018-12-15T13:44:32.284Z,96464.77
2018-12-15T13:47:02.242Z,96461.84
2018-12-15T13:49:32.166Z,96473.88
2018-12-15T13:52:02.156Z,96465.23
2018-12-15T13:58:07.930Z,96474.80
2018-12-15T14:00:37.770Z,96481.00
2018-12-15T14:03:07.662Z,96475.14
2018-12-15T14:05:37.594Z,96470.46
2018-12-15T14:08:07.558Z,96474.73
2018-12-15T14:10:37.627Z,96473.27
2018-12-15T14:13:07.596Z,96477.69
2018-12-15T14:15:37.444Z,96482.16
2018-12-15T14:18:07.340Z,96481.35
2018-12-15T14:20:37.210Z,96479.85
2018-12-15T14:23:07.329Z,96476.73
2018-12-15T14:25:37.204Z,96473.17
2018-12-15T14:28:07.149Z,96471.70
2018-12-15T14:30:37.042Z,96487.81
2018-12-15T14:33:07.042Z,96492.84
2018-12-15T14:35:37.274Z,96487.02
2018-12-15T14:38:07.229Z,96484.64
2018-12-15T14:40:37.227Z,96480.33
2018-12-15T14:43:07.104Z,96478.66
2018-12-15T14:45:36.991Z,96471.69
2018-12-15T14:48:06.958Z,96475.31
2018-12-15T14:50:36.918Z,96467.10
2018-12-15T14:53:06.784Z,96464.03
2018-12-15T14:55:37.619Z,96460.02
2018-12-15T14:58:08.232Z,96463.02
2018-12-15T15:00:38.290Z,96450.66
2018-12-15T15:03:08.234Z,96446.05
2018-12-15T15:05:38.193Z,96435.60
2018-12-15T15:08:08.203Z,96436.69
2018-12-15T15:10:38.614Z,96435.19
2018-12-15T15:13:08.698Z,96437.73
2018-12-15T15:15:38.630Z,96437.95
2018-12-15T15:18:08.596Z,96438.33
2018-12-15T15:20:38.522Z,96439.25
2018-12-15T15:23:09.100Z,96440.52
2018-12-15T15:25:38.960Z,96438.99
2018-12-15T15:28:08.772Z,96442.07
2018-12-15T15:30:38.518Z,96436.80
2018-12-15T15:33:08.419Z,96430.16
2018-12-15T15:35:38.279Z,96433.75
2018-12-15T15:38:08.750Z,96425.66
2018-12-15T15:40:38.664Z,96427.48
2018-12-15T15:43:08.572Z,96422.08
2018-12-15T15:45:38.430Z,96426.80
2018-12-15T15:48:08.309Z,96413.25
2018-12-15T15:50:38.225Z,96419.24
2018-12-15T15:53:08.057Z,96420.21
2018-12-15T15:55:38.042Z,96420.49
2018-12-15T15:58:07.912Z,96415.00
2018-12-15T16:00:37.904Z,96418.67
2018-12-15T16:03:07.785Z,96408.39
2018-12-15T16:05:37.632Z,96408.44
2018-12-15T16:08:07.554Z,96402.36
2018-12-15T16:10:37.486Z,96403.52
2018-12-15T16:13:07.476Z,96399.32
2018-12-15T16:15:37.351Z,96407.53
2018-12-15T16:18:07.503Z,96402.95
2018-12-15T16:20:43.144Z,96398.14
2018-12-15T16:23:10.129Z,96396.33
2018-12-15T16:25:40.014Z,96396.55
2018-12-15T16:28:09.906Z,96391.58
2018-12-15T16:30:40.004Z,96392.86
2018-12-15T16:33:09.791Z,96391.48
2018-12-15T16:35:40.451Z,96395.05
2018-12-15T16:38:10.335Z,96395.05
2018-12-15T16:40:40.267Z,96386.05
2018-12-15T16:43:10.838Z,96385.03
2018-12-15T16:45:41.049Z,96390.16
2018-12-15T16:48:10.877Z,96387.00
2018-12-15T16:50:40.646Z,96382.46
2018-12-15T16:53:12.261Z,96388.67
2018-12-15T16:55:42.013Z,96394.75
2018-12-15T16:58:11.824Z,96397.90
2018-12-15T17:00:42.755Z,96399.49
2018-12-15T17:03:12.955Z,96402.16
2018-12-15T17:09:19.106Z,96400.44
2018-12-15T17:11:48.897Z,96403.44
2018-12-15T17:14:18.979Z,96401.41
2018-12-15T17:16:48.829Z,96396.28
2018-12-15T17:19:18.646Z,96406.21
2018-12-15T17:21:48.485Z,96398.75
2018-12-15T17:24:18.337Z,96400.88
2018-12-15T17:26:48.119Z,96395.64
2018-12-15T17:29:17.846Z,96393.34
2018-12-15T17:31:47.927Z,96398.73
2018-12-15T17:34:17.689Z,96394.03
2018-12-15T17:36:47.820Z,96399.06
2018-12-15T17:39:18.919Z,96398.36
2018-12-15T17:41:48.736Z,96389.31
2018-12-15T17:44:18.643Z,96385.30
2018-12-15T17:46:48.389Z,96381.23
2018-12-15T17:49:18.191Z,96378.68
2018-12-15T17:51:48.284Z,96375.36
2018-12-15T17:54:18.105Z,96368.75
2018-12-15T17:56:47.891Z,96360.00
2018-12-15T17:59:17.659Z,96355.14
2018-12-15T18:01:47.463Z,96345.91
2018-12-15T18:04:17.275Z,96353.80
2018-12-15T18:06:47.803Z,96353.00
2018-12-15T18:09:17.590Z,96338.81
2018-12-15T18:11:48.433Z,96344.28
2018-12-15T18:14:18.202Z,96339.66
2018-12-15T18:16:48.041Z,96342.95
2018-12-15T18:19:18.759Z,96342.36
2018-12-15T18:21:48.555Z,96345.29
2018-12-15T18:24:18.609Z,96344.54
2018-12-15T18:26:48.394Z,96339.74
2018-12-15T18:29:18.151Z,96330.74
2018-12-15T18:31:48.687Z,96322.05
2018-12-15T18:34:18.747Z,96310.02
2018-12-15T18:36:48.760Z,96309.05
2018-12-15T18:39:18.538Z,96300.66
2018-12-15T18:41:48.370Z,96292.59
2018-12-15T18:44:18.116Z,96296.63
2018-12-15T18:46:48.559Z,96291.54
2018-12-15T18:49:18.320Z,96290.42
2018-12-15T18:51:48.088Z,96295.84
2018-12-15T18:54:17.836Z,96283.86
2018-12-15T18:56:48.792Z,96272.41
2018-12-15T18:59:20.555Z,96255.52
2018-12-15T19:01:50.402Z,96256.40
2018-12-15T19:04:20.944Z,96247.34
2018-12-15T19:06:51.136Z,96247.17
2018-12-15T19:09:20.930Z,96249.25
2018-12-15T19:11:50.656Z,96252.41
2018-12-15T19:14:20.507Z,96250.91
2018-12-15T19:16:50.248Z,96251.08
2018-12-15T19:19:20.054Z,96250.84
2018-12-15T19:21:49.862Z,96246.64
2018-12-15T19:24:20.070Z,96239.36
2018-12-15T19:26:49.880Z,96240.30
2018-12-15T19:29:19.672Z,96233.91
2018-12-15T19:31:49.594Z,96235.87
2018-12-15T19:34:19.403Z,96238.31
2018-12-15T19:36:49.775Z,96234.49
2018-12-15T19:39:19.882Z,96236.57
2018-12-15T19:41:50.001Z,96237.41
2018-12-15T19:44:20.471Z,96230.05
2018-12-15T19:46:50.326Z,96233.02
2018-12-15T19:49:21.923Z,96225.97
2018-12-15T19:51:51.711Z,96222.34
2018-12-15T19:54:21.810Z,96217.81
2018-12-15T19:56:51.892Z,96213.20
2018-12-15T19:59:21.714Z,96203.22
2018-12-15T20:01:51.510Z,96195.78
2018-12-15T20:04:21.251Z,96188.55
2018-12-15T20:06:51.776Z,96191.16
2018-12-15T20:09:21.581Z,96195.16
2018-12-15T20:11:51.380Z,96193.70
2018-12-15T20:14:22.979Z,96200.34
2018-12-15T20:16:52.830Z,96191.70
2018-12-15T20:19:22.744Z,96185.36
2018-12-15T20:21:52.617Z,96183.14
2018-12-15T20:24:22.536Z,96185.66
2018-12-15T20:26:52.633Z,96181.81
2018-12-15T20:29:22.546Z,96190.14
2018-12-15T20:31:52.442Z,96190.59
2018-12-15T20:34:22.349Z,96196.36
2018-12-15T20:36:52.304Z,96198.14
2018-12-15T20:39:22.174Z,96201.17
2018-12-15T20:41:52.117Z,96200.33
2018-12-15T20:44:22.099Z,96197.61
2018-12-15T20:46:51.997Z,96194.78
2018-12-15T20:50:51.364Z,96192.45
2018-12-15T20:53:21.261Z,96186.64
2018-12-15T20:55:51.097Z,96173.70
2018-12-15T20:58:20.941Z,96168.90
2018-12-15T21:00:51.011Z,96161.50
2018-12-15T21:03:20.993Z,96158.56
2018-12-15T21:05:50.923Z,96161.17
2018-12-15T21:08:20.803Z,96162.45
2018-12-15T21:10:51.295Z,96157.50
2018-12-15T21:13:21.556Z,96151.26
2018-12-15T21:18:39.784Z,96158.27
2018-12-15T21:21:09.814Z,96165.77
2018-12-15T21:23:39.708Z,96167.16
2018-12-15T21:26:09.695Z,96165.00
2018-12-15T21:29:21.881Z,96172.06
2018-12-15T21:31:56.726Z,96164.17
2018-12-15T21:34:24.200Z,96152.63
2018-12-15T21:36:54.500Z,96145.58
2018-12-15T21:43:00.604Z,96123.34
2018-12-15T21:45:30.467Z,96130.86
2018-12-15T21:48:00.438Z,96129.36
2018-12-15T21:50:30.403Z,96125.24
2018-12-15T21:53:00.592Z,96122.35
2018-12-15T21:55:30.520Z,96111.41
2018-12-15T21:58:00.374Z,96113.48
2018-12-15T22:00:30.251Z,96106.89
2018-12-15T22:03:00.079Z,96102.95
2018-12-15T22:05:30.010Z,96103.62
2018-12-15T22:08:00.408Z,96098.95
2018-12-15T22:10:30.232Z,96097.81
2018-12-15T22:13:00.133Z,96095.62
2018-12-15T22:15:30.031Z,96088.11
2018-12-15T22:17:59.880Z,96079.31
2018-12-15T22:20:30.392Z,96085.98
2018-12-15T22:23:00.254Z,96082.84
2018-12-15T22:25:30.133Z,96079.98
2018-12-15T22:28:00.044Z,96075.69
2018-12-15T22:30:30.178Z,96081.24
2018-12-15T22:33:00.393Z,96083.63
2018-12-15T22:35:30.298Z,96076.35
2018-12-15T22:38:00.237Z,96069.30
2018-12-15T22:40:30.550Z,96063.36
2018-12-15T22:43:00.359Z,96061.91
2018-12-15T22:45:30.962Z,96058.77
2018-12-15T22:48:00.902Z,96059.29
2018-12-15T22:50:30.759Z,96060.64
2018-12-15T22:53:00.631Z,96053.69
2018-12-15T22:55:30.980Z,96045.56
2018-12-15T22:58:00.961Z,96040.36
2018-12-15T23:00:35.257Z,96037.31
2018-12-15T23:03:05.615Z,96038.16
2018-12-15T23:05:35.631Z,96036.03
2018-12-15T23:08:05.647Z,96028.42
2018-12-15T23:10:36.305Z,96033.91
2018-12-15T23:13:07.338Z,96027.56
2018-12-15T23:15:37.532Z,96026.97
2018-12-15T23:18:07.749Z,96024.81
2018-12-15T23:20:37.661Z,96013.55
2018-12-15T23:23:07.623Z,96010.78
2018-12-15T23:25:37.513Z,95998.35
2018-12-15T23:28:07.443Z,95997.64
2018-12-15T23:30:37.346Z,95993.65
2018-12-15T23:33:07.153Z,95976.45
2018-12-15T23:35:37.068Z,95974.11
2018-12-15T23:38:06.909Z,95970.14
2018-12-15T23:40:36.941Z,95971.34
2018-12-15T23:43:06.985Z,95970.66
2018-12-15T23:45:36.855Z,95970.91
2018-12-15T23:48:06.782Z,95967.50
2018-12-15T23:50:36.707Z,95968.30
2018-12-15T23:53:07.246Z,95964.94
2018-12-15T23:55:37.080Z,95960.81
2018-12-15T23:58:06.931Z,95963.20
